Time;durP1;ratioP1;P1;durP2;ratioP2;P2;SDS_P1;SDS_P2;PMS_P1;PMS_P2;Temp;Humidity;BMP_temperature;BMP_pressure;BME280_temperature;BME280_humidity;BME280_pressure;Samples;Min_cycle;Max_cycle;Signal;HPM_P1;HPM_P2
2022/07/26 00:01:28;;;;;;;2.40;2.00;;;;;;;22.50;60.85;97977.16;5050176;28;20219;-73
2022/07/26 00:03:55;;;;;;;3.23;2.20;;;;;;;22.51;60.76;97992.34;5052122;28;20216;-73
2022/07/26 00:06:21;;;;;;;4.73;2.27;;;;;;;22.48;60.86;97992.69;5052079;28;20558;-73
2022/07/26 00:08:48;;;;;;;3.40;1.80;;;;;;;22.42;61.43;98004.16;5052125;28;20569;-73
2022/07/26 00:11:15;;;;;;;2.17;1.70;;;;;;;22.36;61.64;98004.88;5051990;28;20211;-72
2022/07/26 00:13:42;;;;;;;2.73;1.87;;;;;;;22.35;61.90;98003.22;5051458;28;20244;-72
2022/07/26 00:16:09;;;;;;;2.50;1.73;;;;;;;22.39;63.04;98009.91;5051850;28;20319;-74
2022/07/26 00:18:37;;;;;;;2.00;1.80;;;;;;;22.42;62.90;98008.69;5054826;28;20247;-72
2022/07/26 00:21:03;;;;;;;2.87;1.97;;;;;;;22.50;62.12;98006.78;5055529;28;20248;-75
2022/07/26 00:23:30;;;;;;;3.90;2.20;;;;;;;22.63;61.46;98012.41;5055240;28;20220;-74
2022/07/26 00:25:56;;;;;;;2.73;1.87;;;;;;;22.73;61.01;98001.38;5055558;28;20216;-72
2022/07/26 00:28:23;;;;;;;2.97;1.90;;;;;;;22.78;60.40;97993.53;5053576;28;20691;-73
2022/07/26 00:30:50;;;;;;;2.93;2.20;;;;;;;22.81;60.17;98004.78;5055420;28;20220;-73
2022/07/26 00:33:16;;;;;;;3.87;2.50;;;;;;;22.87;59.33;97998.66;5055032;28;20243;-72
2022/07/26 00:35:44;;;;;;;4.40;2.30;;;;;;;22.95;59.05;97997.72;5055053;28;20233;-72
2022/07/26 00:38:11;;;;;;;3.57;1.97;;;;;;;22.99;58.73;97997.16;5055405;28;20220;-72
2022/07/26 00:40:37;;;;;;;4.33;1.83;;;;;;;23.03;58.82;98003.88;5054942;28;20670;-72
2022/07/26 00:43:04;;;;;;;2.80;1.90;;;;;;;23.08;58.66;98001.44;5054850;28;20216;-74
2022/07/26 00:45:30;;;;;;;3.27;1.90;;;;;;;23.12;58.75;98002.75;5055082;28;20252;-74
2022/07/26 00:47:57;;;;;;;2.43;1.80;;;;;;;23.15;58.74;98007.75;5055002;28;20591;-74
2022/07/26 00:50:23;;;;;;;2.80;1.70;;;;;;;23.15;59.17;98007.75;5055007;28;20215;-75
2022/07/26 00:52:51;;;;;;;2.60;1.50;;;;;;;23.13;59.72;98009.81;5055078;28;20563;-74
2022/07/26 00:55:19;;;;;;;1.80;1.47;;;;;;;23.14;59.89;98016.03;5053191;28;20222;-75
2022/07/26 00:57:46;;;;;;;2.37;1.40;;;;;;;23.20;59.94;98018.00;5054706;28;20223;-73
2022/07/26 01:00:17;;;;;;;2.03;1.60;;;;;;;23.18;60.04;98018.22;5053565;28;20219;-74
2022/07/26 01:02:44;;;;;;;2.57;1.40;;;;;;;23.09;61.55;98024.69;5054895;28;20216;-75
2022/07/26 01:05:11;;;;;;;2.13;1.30;;;;;;;22.89;64.88;98047.84;5054753;28;20216;-74
2022/07/26 01:07:38;;;;;;;4.13;1.40;;;;;;;22.75;65.75;98048.63;5055060;28;20211;-74
2022/07/26 01:10:11;;;;;;;3.13;1.80;;;;;;;22.44;69.93;98077.56;5054557;28;20685;-73
2022/07/26 01:12:37;;;;;;;4.27;2.20;;;;;;;21.54;80.49;98093.56;5054914;28;20224;-73
2022/07/26 01:15:05;;;;;;;4.10;2.40;;;;;;;20.61;88.91;98101.50;5054820;28;20253;-70
2022/07/26 01:17:31;;;;;;;4.23;2.80;;;;;;;19.97;100.00;98093.41;5054798;28;20255;-63
2022/07/26 01:19:58;;;;;;;3.97;2.77;;;;;;;19.55;100.00;98091.78;5053679;28;20216;-63
2022/07/26 01:22:26;;;;;;;3.90;2.50;;;;;;;19.30;100.00;98077.47;5054982;28;20246;-62
2022/07/26 01:24:52;;;;;;;4.43;2.90;;;;;;;19.02;100.00;98070.59;5054666;28;20212;-62
2022/07/26 01:27:19;;;;;;;3.90;3.10;;;;;;;18.89;100.00;98056.78;5054324;28;20219;-63
2022/07/26 01:29:46;;;;;;;3.80;2.80;;;;;;;18.75;100.00;98048.50;5053913;28;20682;-62
2022/07/26 01:32:13;;;;;;;4.03;3.10;;;;;;;18.70;100.00;98050.81;5054582;28;20216;-63
2022/07/26 01:34:40;;;;;;;2.77;2.50;;;;;;;18.65;100.00;98043.25;5054404;28;20274;-64
2022/07/26 01:37:06;;;;;;;3.03;2.80;;;;;;;18.66;100.00;98044.94;5054443;28;20220;-63
2022/07/26 01:39:34;;;;;;;3.53;3.10;;;;;;;18.50;100.00;98041.31;5054464;28;20579;-63
2022/07/26 01:42:01;;;;;;;3.50;2.73;;;;;;;18.43;100.00;98033.09;5054347;28;20212;-63
2022/07/26 01:44:27;;;;;;;5.33;3.27;;;;;;;18.47;100.00;98034.44;5054421;28;20216;-63
2022/07/26 01:46:54;;;;;;;3.67;3.20;;;;;;;18.62;100.00;98038.25;5052328;28;20211;-64
2022/07/26 01:49:20;;;;;;;5.93;3.27;;;;;;;18.75;100.00;98037.78;5053941;28;20689;-64
2022/07/26 01:51:47;;;;;;;3.80;3.13;;;;;;;18.82;100.00;98028.97;5053857;28;20208;-64
2022/07/26 01:54:13;;;;;;;3.50;3.20;;;;;;;18.90;100.00;98031.69;5051035;28;20748;-65
2022/07/26 01:56:42;;;;;;;3.60;3.30;;;;;;;19.00;100.00;98031.56;5054040;28;20239;-64
2022/07/26 01:59:08;;;;;;;3.77;3.37;;;;;;;19.09;100.00;98031.44;5053961;28;20266;-64
2022/07/26 02:01:35;;;;;;;3.43;3.13;;;;;;;19.13;100.00;98032.81;5054053;28;20223;-63
2022/07/26 02:04:01;;;;;;;3.13;2.83;;;;;;;19.12;100.00;98024.91;5054028;28;20219;-64
2022/07/26 02:06:28;;;;;;;3.73;3.30;;;;;;;19.11;100.00;98029.44;5053884;28;20212;-63
2022/07/26 02:08:54;;;;;;;4.00;3.37;;;;;;;19.11;100.00;98026.78;5053498;28;20716;-66
2022/07/26 02:11:21;;;;;;;3.70;3.30;;;;;;;19.13;100.00;98027.44;5053325;28;20212;-65
2022/07/26 02:13:48;;;;;;;4.77;3.67;;;;;;;19.14;100.00;98023.75;5052414;28;20334;-65
2022/07/26 02:16:15;;;;;;;3.53;3.00;;;;;;;19.15;100.00;98025.44;5053720;28;20216;-65
2022/07/26 02:18:42;;;;;;;3.10;2.80;;;;;;;19.15;100.00;98022.75;5053620;28;20222;-65
2022/07/26 02:21:09;;;;;;;3.57;3.10;;;;;;;19.16;100.00;98021.78;5053510;28;20250;-65
2022/07/26 02:23:36;;;;;;;3.53;3.20;;;;;;;19.18;100.00;98024.28;5053727;28;20220;-65
2022/07/26 02:26:03;;;;;;;3.37;2.90;;;;;;;19.15;100.00;98020.06;5047101;28;20216;-65
2022/07/26 02:28:29;;;;;;;3.40;2.87;;;;;;;19.15;100.00;98020.06;5053134;28;20669;-66
2022/07/26 02:30:57;;;;;;;4.13;3.23;;;;;;;19.12;100.00;98020.41;5053400;28;20222;-66
2022/07/26 02:33:23;;;;;;;3.40;3.10;;;;;;;19.12;100.00;98016.88;5053263;28;20259;-66
2022/07/26 02:35:50;;;;;;;3.53;3.10;;;;;;;19.11;100.00;98012.53;5053266;28;20215;-66
2022/07/26 02:38:17;;;;;;;4.13;3.00;;;;;;;19.13;100.00;98014.03;5051457;28;20212;-67
2022/07/26 02:40:43;;;;;;;3.37;2.80;;;;;;;19.17;100.00;98012.72;5052591;28;20225;-68
2022/07/26 02:43:10;;;;;;;3.20;2.90;;;;;;;19.25;100.00;98018.13;5053219;28;20254;-68
2022/07/26 02:45:37;;;;;;;3.47;3.00;;;;;;;19.30;100.00;98020.31;5053118;28;20214;-68
2022/07/26 02:48:06;;;;;;;3.63;3.10;;;;;;;19.32;100.00;98024.53;5053109;28;20218;-69
2022/07/26 02:50:32;;;;;;;3.30;3.00;;;;;;;19.25;100.00;98020.81;5053233;28;20222;-65
2022/07/26 02:52:59;;;;;;;4.77;3.20;;;;;;;19.16;100.00;98016.41;5052949;28;20234;-66
2022/07/26 02:55:27;;;;;;;3.13;2.87;;;;;;;19.09;100.00;98012.69;5053001;28;20238;-65
2022/07/26 02:57:54;;;;;;;3.00;2.70;;;;;;;19.10;100.00;98014.38;5053019;28;20294;-66
2022/07/26 03:00:22;;;;;;;2.70;2.50;;;;;;;19.15;100.00;98014.72;5052878;28;20230;-67
2022/07/26 03:02:50;;;;;;;2.80;2.10;;;;;;;19.26;100.00;98016.31;5052547;28;20307;-67
2022/07/26 03:05:19;;;;;;;3.47;2.43;;;;;;;19.31;100.00;98009.44;5051242;28;20269;-67
2022/07/26 03:07:45;;;;;;;2.50;2.30;;;;;;;19.35;100.00;98010.81;5052465;28;20220;-67
2022/07/26 03:10:12;;;;;;;2.40;2.20;;;;;;;19.32;100.00;98008.44;5052559;28;20216;-66
2022/07/26 03:12:39;;;;;;;3.70;2.80;;;;;;;19.23;100.00;98001.41;5052805;28;20211;-67
2022/07/26 03:15:07;;;;;;;3.10;2.57;;;;;;;19.13;100.00;98000.66;5052385;28;20246;-68
2022/07/26 03:17:34;;;;;;;3.47;2.63;;;;;;;19.02;100.00;98003.63;5052479;28;20216;-68
2022/07/26 03:20:01;;;;;;;3.27;2.40;;;;;;;18.92;100.00;97997.56;5052724;28;20220;-68
2022/07/26 03:22:29;;;;;;;2.83;2.17;;;;;;;18.90;100.00;98002.22;5052765;28;20240;-68
2022/07/26 03:24:55;;;;;;;2.43;2.23;;;;;;;18.83;100.00;98009.22;5052374;28;20212;-69
2022/07/26 03:27:22;;;;;;;2.40;2.20;;;;;;;18.79;100.00;98007.88;5052627;28;20676;-69
2022/07/26 03:30:04;;;;;;;3.10;2.17;;;;;;;18.72;100.00;98006.81;5017424;28;20289;-69
2022/07/26 03:32:30;;;;;;;3.83;2.20;;;;;;;18.75;100.00;98017.22;5052524;28;20216;-69
2022/07/26 03:34:57;;;;;;;2.93;2.17;;;;;;;18.75;100.00;98019.06;5052293;28;20250;-69
2022/07/26 03:37:23;;;;;;;5.60;2.10;;;;;;;18.75;100.00;98014.56;5052371;28;20215;-69
2022/07/26 03:39:51;;;;;;;2.37;2.17;;;;;;;18.76;100.00;98024.25;5052258;28;20219;-70
2022/07/26 03:42:18;;;;;;;2.50;1.70;;;;;;;18.77;100.00;98025.94;5052415;28;20208;-69
2022/07/26 03:44:44;;;;;;;2.63;1.83;;;;;;;18.84;100.00;98018.94;5052490;28;20220;-70
2022/07/26 03:47:11;;;;;;;3.07;1.70;;;;;;;18.79;100.00;98028.44;5052195;28;20234;-70
2022/07/26 03:49:37;;;;;;;2.10;1.77;;;;;;;18.81;100.00;98038.00;5052167;28;20222;-70
2022/07/26 03:52:04;;;;;;;4.53;2.00;;;;;;;18.81;100.00;98021.09;5054274;28;20673;-70
2022/07/26 03:54:31;;;;;;;2.00;1.80;;;;;;;18.81;100.00;98032.66;5056248;28;20326;-70
2022/07/26 03:56:58;;;;;;;2.40;1.70;;;;;;;18.78;100.00;98041.00;5054636;28;20588;-70
2022/07/26 03:59:24;;;;;;;2.37;2.07;;;;;;;18.70;100.00;98035.59;5056239;28;20630;-70
2022/07/26 04:01:51;;;;;;;3.40;1.90;;;;;;;18.68;100.00;98032.25;5056325;28;20581;-71
2022/07/26 04:04:18;;;;;;;2.10;1.63;;;;;;;18.65;100.00;98037.91;5056327;28;20227;-70
2022/07/26 04:06:46;;;;;;;1.97;1.77;;;;;;;18.61;100.00;98035.72;5056320;28;20216;-70
2022/07/26 04:09:13;;;;;;;1.87;1.73;;;;;;;18.59;100.00;98027.00;5056003;28;20216;-71
2022/07/26 04:11:41;;;;;;;2.33;1.83;;;;;;;18.57;100.00;98032.50;5055880;28;20230;-72
2022/07/26 04:14:09;;;;;;;2.20;2.00;;;;;;;18.51;100.00;98030.47;5056051;28;20239;-70
2022/07/26 04:16:36;;;;;;;1.83;1.73;;;;;;;18.49;100.00;98035.16;5056127;28;20223;-71
2022/07/26 04:19:03;;;;;;;2.30;2.03;;;;;;;18.47;100.00;98029.09;5055775;28;20215;-72
2022/07/26 04:21:29;;;;;;;2.30;2.10;;;;;;;18.44;100.00;98032.09;5055614;28;20240;-72
2022/07/26 04:23:56;;;;;;;3.37;2.17;;;;;;;18.45;100.00;98024.88;5054009;28;20682;-72
2022/07/26 04:26:22;;;;;;;2.23;2.03;;;;;;;18.42;100.00;98042.09;5055444;28;20216;-72
2022/07/26 04:28:49;;;;;;;2.67;2.00;;;;;;;18.43;100.00;98043.81;5055844;28;20216;-73
2022/07/26 04:31:17;;;;;;;2.13;1.90;;;;;;;18.48;100.00;98040.66;5055542;28;20212;-73
2022/07/26 04:33:43;;;;;;;2.13;1.90;;;;;;;18.52;100.00;98037.50;5055342;28;20211;-73
2022/07/26 04:36:10;;;;;;;2.60;1.90;;;;;;;18.55;100.00;98042.53;5055467;28;20685;-73
2022/07/26 04:38:36;;;;;;;3.20;2.30;;;;;;;18.57;100.00;98050.41;5048445;28;20219;-73
2022/07/26 04:41:03;;;;;;;3.80;2.27;;;;;;;18.59;100.00;98051.09;5055074;28;20685;-73
2022/07/26 04:43:30;;;;;;;3.57;2.07;;;;;;;18.58;100.00;98058.28;5055547;28;20224;-74
2022/07/26 04:45:57;;;;;;;2.33;1.87;;;;;;;18.61;100.00;98055.31;5055537;28;20220;-74
2022/07/26 04:48:25;;;;;;;1.90;1.80;;;;;;;18.62;100.00;98059.66;5053491;28;20219;-74
2022/07/26 04:50:51;;;;;;;2.23;2.03;;;;;;;18.63;100.00;98053.31;5055397;28;20220;-74
2022/07/26 04:53:18;;;;;;;2.23;2.03;;;;;;;18.71;100.00;98063.22;5055571;28;20640;-74
2022/07/26 04:55:45;;;;;;;2.20;2.00;;;;;;;18.77;100.00;98063.41;5055045;28;20236;-73
2022/07/26 04:58:12;;;;;;;3.00;2.30;;;;;;;18.79;100.00;98061.44;5055245;28;20216;-74
2022/07/26 05:00:38;;;;;;;2.20;2.00;;;;;;;18.97;100.00;98072.91;5054826;28;20677;-74
2022/07/26 05:03:05;;;;;;;2.13;2.00;;;;;;;19.24;100.00;98067.38;5053944;28;20212;-74
2022/07/26 05:05:33;;;;;;;2.03;1.83;;;;;;;19.52;100.00;98068.81;5054803;28;20208;-74
2022/07/26 05:08:02;;;;;;;1.90;1.80;;;;;;;19.75;100.00;98071.75;5054747;28;20311;-74
2022/07/26 05:10:31;;;;;;;2.83;2.13;;;;;;;19.97;100.00;98074.63;5054909;28;20209;-74
2022/07/26 05:12:58;;;;;;;2.10;1.80;;;;;;;20.20;100.00;98077.53;5054923;28;20214;-74
2022/07/26 05:15:25;;;;;;;2.10;1.80;;;;;;;20.31;100.00;98069.97;5053047;28;20242;-74
2022/07/26 05:17:52;;;;;;;2.43;2.10;;;;;;;20.43;100.00;98073.16;5054889;28;20215;-74
2022/07/26 05:20:18;;;;;;;2.93;2.20;;;;;;;20.51;100.00;98076.69;5054437;28;20214;-73
2022/07/26 05:22:46;;;;;;;2.80;2.43;;;;;;;20.60;100.00;98075.66;5054492;28;20208;-74
2022/07/26 05:25:13;;;;;;;3.20;2.00;;;;;;;20.66;100.00;98074.97;5054809;28;20211;-74
2022/07/26 05:27:40;;;;;;;2.20;2.00;;;;;;;20.62;100.00;98073.66;5054282;28;20349;-74
2022/07/26 05:30:09;;;;;;;1.83;1.73;;;;;;;20.52;100.00;98080.19;5054454;28;20220;-75
2022/07/26 05:32:36;;;;;;;2.30;2.10;;;;;;;20.62;99.71;98084.41;5051919;28;20211;-75
2022/07/26 05:35:02;;;;;;;2.30;2.10;;;;;;;20.60;99.44;98086.41;5053927;28;20279;-75
2022/07/26 05:37:29;;;;;;;2.63;2.07;;;;;;;20.58;99.76;98088.44;5054069;28;20258;-75
2022/07/26 05:39:57;;;;;;;3.80;2.50;;;;;;;20.60;99.57;98094.47;5054139;28;20204;-75
2022/07/26 05:42:24;;;;;;;3.20;2.30;;;;;;;20.64;98.80;98093.13;5050613;28;20208;-75
2022/07/26 05:44:51;;;;;;;2.30;2.10;;;;;;;21.15;96.27;98087.31;5054068;28;20208;-75
2022/07/26 05:47:17;;;;;;;2.53;2.13;;;;;;;21.32;94.58;98078.19;5053869;28;20299;-75
2022/07/26 05:49:44;;;;;;;2.87;2.10;;;;;;;21.60;91.34;98092.03;5054032;28;20218;-75
2022/07/26 05:52:11;;;;;;;2.33;2.00;;;;;;;21.73;89.69;98087.78;5053943;28;20220;-75
2022/07/26 05:54:37;;;;;;;2.60;2.30;;;;;;;22.03;89.37;98092.31;5053777;28;20239;-75
2022/07/26 05:57:05;;;;;;;2.90;2.00;;;;;;;23.15;84.48;98088.66;5053954;28;20216;-75
2022/07/26 05:59:32;;;;;;;2.53;2.00;;;;;;;24.34;77.55;98085.41;5053985;28;20266;-75
2022/07/26 06:01:59;;;;;;;5.07;2.23;;;;;;;24.59;75.70;98086.72;5053793;28;20572;-75
2022/07/26 06:04:27;;;;;;;3.70;1.90;;;;;;;24.15;76.36;98088.72;5054183;28;20626;-77
2022/07/26 06:06:54;;;;;;;2.60;1.80;;;;;;;24.37;75.06;98093.13;5052174;28;20212;-74
2022/07/26 06:09:21;;;;;;;2.53;1.90;;;;;;;25.11;72.67;98100.63;5053965;28;20212;-76
2022/07/26 06:11:47;;;;;;;2.87;2.07;;;;;;;25.89;68.36;98087.56;5052957;28;20216;-77
2022/07/26 06:14:15;;;;;;;2.30;1.77;;;;;;;26.49;61.81;98092.09;5053018;28;20212;-79
2022/07/26 06:16:42;;;;;;;2.40;1.70;;;;;;;26.81;62.16;98089.44;5053533;28;20216;-77
2022/07/26 06:19:08;;;;;;;3.93;2.00;;;;;;;27.20;59.37;98086.72;5054057;28;20212;-78
2022/07/26 06:21:35;;;;;;;2.37;1.90;;;;;;;27.35;56.95;98087.34;5053464;28;20263;-81
2022/07/26 06:24:01;;;;;;;3.37;1.70;;;;;;;27.41;56.16;98094.63;5053698;28;20208;-76
2022/07/26 06:26:28;;;;;;;5.13;1.70;;;;;;;27.47;57.39;98091.06;5053392;28;20207;-77
2022/07/26 06:28:54;;;;;;;2.83;1.80;;;;;;;27.79;56.23;98087.41;5053637;28;20295;-75
2022/07/26 06:31:23;;;;;;;1.50;1.40;;;;;;;28.06;54.10;98097.16;5052819;28;20216;-71
2022/07/26 06:33:50;;;;;;;1.70;1.60;;;;;;;28.30;52.97;98090.94;5048844;28;20300;-73
2022/07/26 06:36:18;;;;;;;3.07;1.63;;;;;;;28.39;51.67;98097.81;5052011;28;20239;-72
2022/07/26 06:38:44;;;;;;;5.03;1.67;;;;;;;27.93;50.34;98097.19;5052668;28;20566;-74
2022/07/26 06:41:11;;;;;;;6.30;1.90;;;;;;;27.75;51.90;98088.88;5053162;28;20215;-74
2022/07/26 06:43:39;;;;;;;2.23;1.47;;;;;;;27.97;51.73;98098.44;5052785;28;20674;-73
2022/07/26 06:46:06;;;;;;;2.93;1.60;;;;;;;28.14;49.35;98089.56;5053114;28;20212;-73
2022/07/26 06:48:34;;;;;;;4.30;1.70;;;;;;;27.39;48.58;98094.00;5052813;28;20216;-76
2022/07/26 06:51:01;;;;;;;2.80;1.27;;;;;;;27.01;50.70;98095.69;5052727;28;20216;-75
2022/07/26 06:53:27;;;;;;;3.47;1.53;;;;;;;26.66;51.19;98098.81;5052824;28;20212;-79
2022/07/26 06:55:54;;;;;;;4.93;1.50;;;;;;;26.62;50.92;98103.84;5052853;28;20612;-77
2022/07/26 06:58:20;;;;;;;2.73;1.40;;;;;;;26.45;51.60;98097.09;5053159;28;20208;-75
2022/07/26 07:00:47;;;;;;;3.37;1.63;;;;;;;25.83;52.52;98101.91;5050738;28;20212;-74
2022/07/26 07:03:13;;;;;;;1.33;1.23;;;;;;;25.28;55.85;98104.75;5052627;28;20212;-74
2022/07/26 07:05:41;;;;;;;2.33;1.33;;;;;;;24.53;57.86;98098.28;5052727;28;20207;-75
2022/07/26 07:08:08;;;;;;;1.60;1.37;;;;;;;24.04;61.55;98102.75;5052708;28;20266;-74
2022/07/26 07:10:34;;;;;;;2.20;1.40;;;;;;;23.77;61.82;98099.91;5051061;28;20216;-73
2022/07/26 07:13:01;;;;;;;2.40;1.30;;;;;;;23.64;60.84;98097.88;5049820;28;20242;-73
2022/07/26 07:15:27;;;;;;;1.47;1.20;;;;;;;23.47;60.59;98096.38;5051449;28;20604;-73
2022/07/26 07:17:54;;;;;;;2.67;1.33;;;;;;;23.31;57.60;98093.06;5051956;28;20216;-74
2022/07/26 07:20:20;;;;;;;2.47;1.27;;;;;;;23.23;57.89;98091.28;5049634;28;20580;-74
2022/07/26 07:22:48;;;;;;;1.20;1.10;;;;;;;23.25;61.42;98097.34;5050266;28;20208;-73
2022/07/26 07:25:15;;;;;;;2.90;1.30;;;;;;;23.31;58.80;98093.91;5050034;28;20571;-73
2022/07/26 07:27:42;;;;;;;1.87;1.17;;;;;;;23.32;59.90;98097.41;5068820;28;20212;-74
2022/07/26 07:30:09;;;;;;;2.23;1.40;;;;;;;23.30;59.44;98092.25;5070862;28;20219;-75
2022/07/26 07:32:36;;;;;;;1.47;1.33;;;;;;;23.36;59.39;98096.84;5070941;28;20211;-73
2022/07/26 07:35:03;;;;;;;2.23;1.40;;;;;;;23.41;58.80;98089.03;5070167;28;20270;-73
2022/07/26 07:37:29;;;;;;;2.67;1.20;;;;;;;23.42;56.89;98101.50;5069713;28;20218;-73
2022/07/26 07:39:57;;;;;;;1.30;1.03;;;;;;;23.42;57.05;98104.19;5070692;28;20211;-76
2022/07/26 07:42:23;;;;;;;3.53;1.30;;;;;;;23.48;56.31;98095.34;5070038;28;20290;-74
2022/07/26 07:44:50;;;;;;;1.63;1.10;;;;;;;23.53;55.80;98100.22;5071138;28;20221;-74
2022/07/26 07:47:17;;;;;;;2.13;1.00;;;;;;;23.57;57.76;98094.25;5070455;28;20216;-72
2022/07/26 07:49:43;;;;;;;2.57;1.03;;;;;;;23.68;56.25;98096.47;5070338;28;20215;-73
2022/07/26 07:52:10;;;;;;;1.10;1.00;;;;;;;23.81;56.34;98096.63;5068823;28;20208;-73
2022/07/26 07:54:37;;;;;;;2.93;1.17;;;;;;;23.96;55.23;98091.22;5070939;28;20220;-72
2022/07/26 07:57:04;;;;;;;3.27;1.20;;;;;;;24.07;53.60;98091.56;5069619;28;20211;-72
2022/07/26 07:59:31;;;;;;;2.00;1.43;;;;;;;24.06;52.30;98100.69;5070823;28;20223;-70
2022/07/26 08:01:58;;;;;;;1.40;1.10;;;;;;;24.02;53.44;98099.38;5070331;28;20298;-71
2022/07/26 08:04:24;;;;;;;2.60;1.10;;;;;;;23.96;53.16;98083.94;5069592;28;20211;-74
2022/07/26 08:06:51;;;;;;;3.20;1.00;;;;;;;24.03;54.14;98098.34;5069933;28;20223;-74
2022/07/26 08:09:17;;;;;;;3.07;1.03;;;;;;;24.10;52.66;98093.91;5058253;28;20215;-71
2022/07/26 08:11:44;;;;;;;1.30;1.00;;;;;;;24.18;50.94;98093.75;5048725;28;20243;-74
2022/07/26 08:14:12;;;;;;;1.37;1.00;;;;;;;24.22;49.89;98095.06;5058475;28;20212;-78
2022/07/26 08:16:38;;;;;;;2.40;0.90;;;;;;;24.27;49.35;98098.00;5067911;28;20356;-77
2022/07/26 08:19:05;;;;;;;1.70;0.90;;;;;;;24.19;49.37;98095.44;5056345;28;20691;-77
2022/07/26 08:21:31;;;;;;;1.63;1.00;;;;;;;24.14;49.15;98097.84;5060549;28;20232;-76
2022/07/26 08:23:58;;;;;;;3.50;1.00;;;;;;;24.14;51.26;98088.94;5050603;28;20239;-78
2022/07/26 08:26:25;;;;;;;1.90;1.03;;;;;;;24.28;49.71;98093.44;5050197;28;20227;-74
2022/07/26 08:28:51;;;;;;;1.87;0.97;;;;;;;24.34;48.12;98089.97;5051079;28;20224;-69
2022/07/26 08:31:19;;;;;;;1.30;0.80;;;;;;;24.42;50.73;98093.38;5051649;28;20678;-71
2022/07/26 08:33:46;;;;;;;1.77;0.70;;;;;;;24.49;46.95;98094.28;5051412;28;20626;-66
2022/07/26 08:36:13;;;;;;;1.43;1.00;;;;;;;24.48;47.70;98095.31;5051398;28;20240;-68
2022/07/26 08:38:39;;;;;;;2.50;0.90;;;;;;;24.43;46.80;98100.44;5052861;28;20725;-69
2022/07/26 08:41:06;;;;;;;1.30;1.00;;;;;;;24.42;46.58;98096.09;5055297;28;20212;-68
2022/07/26 08:43:32;;;;;;;3.00;0.90;;;;;;;24.37;47.16;98103.06;5054982;28;20216;-70
2022/07/26 08:46:01;;;;;;;1.40;0.87;;;;;;;24.33;46.91;98099.94;5053578;28;20227;-70
2022/07/26 08:48:29;;;;;;;2.90;1.20;;;;;;;24.32;47.30;98095.56;5055239;28;20224;-69
2022/07/26 08:50:56;;;;;;;0.90;0.90;;;;;;;24.26;47.35;98093.63;5055190;28;20219;-67
2022/07/26 08:53:23;;;;;;;2.33;1.30;;;;;;;24.23;47.50;98102.13;5054981;28;20223;-71
2022/07/26 08:55:55;;;;;;;1.97;0.87;;;;;;;24.20;47.44;98105.19;5054966;28;20236;-68
2022/07/26 08:58:22;;;;;;;1.43;1.10;;;;;;;24.32;47.28;98100.97;5041720;28;20677;-71
2022/07/26 09:01:03;;;;;;;2.33;1.00;;;;;;;24.28;46.65;98107.81;5055319;28;20583;-70
2022/07/26 09:03:31;;;;;;;1.43;0.80;;;;;;;24.26;46.92;98109.84;5055139;28;20219;-68
2022/07/26 09:06:11;;;;;;;2.50;1.10;;;;;;;24.16;47.43;98103.94;5054744;28;20216;-70
2022/07/26 09:08:37;;;;;;;2.87;0.80;;;;;;;24.14;47.51;98105.97;5054818;28;20212;-70
2022/07/26 09:11:27;;;;;;;3.57;1.10;;;;;;;24.22;47.36;98105.88;5055010;28;20212;-70
2022/07/26 09:13:56;;;;;;;2.70;1.00;;;;;;;24.23;48.14;98101.28;5053501;28;20212;-70
2022/07/26 09:16:22;;;;;;;2.17;1.00;;;;;;;24.34;47.58;98117.84;5054206;28;20590;-70
2022/07/26 09:18:51;;;;;;;2.67;1.10;;;;;;;24.32;48.04;98122.56;5054533;28;20536;-69
2022/07/26 09:21:31;;;;;;;3.07;1.00;;;;;;;24.44;47.02;98118.34;5054274;28;20244;-70
2022/07/26 09:23:59;;;;;;;1.97;1.10;;;;;;;24.61;46.51;98105.41;5041556;28;20765;-72
2022/07/26 09:26:25;;;;;;;0.93;0.87;;;;;;;24.61;45.79;98117.06;5053391;28;20587;-69
2022/07/26 09:29:04;;;;;;;4.23;0.80;;;;;;;24.60;45.46;98114.56;5051762;28;20602;-69
2022/07/26 09:31:30;;;;;;;2.07;0.83;;;;;;;24.55;45.60;98107.00;5052219;28;20212;-69
2022/07/26 09:33:58;;;;;;;2.93;1.00;;;;;;;24.59;46.57;98119.16;5054506;28;20211;-69
2022/07/26 09:36:25;;;;;;;1.87;0.80;;;;;;;24.68;46.10;98128.78;5054135;28;20602;-69
2022/07/26 09:38:54;;;;;;;1.40;0.70;;;;;;;24.57;46.49;98114.97;5052501;28;20223;-68
2022/07/26 09:41:21;;;;;;;2.23;1.07;;;;;;;24.69;45.13;98130.44;5054336;28;20224;-68
2022/07/26 09:43:48;;;;;;;2.87;0.97;;;;;;;24.59;45.74;98119.16;5054316;28;20218;-69
2022/07/26 09:46:14;;;;;;;3.03;0.90;;;;;;;24.40;45.90;98125.16;5054293;28;20208;-69
2022/07/26 09:48:41;;;;;;;2.23;1.17;;;;;;;24.37;46.29;98127.38;5054023;28;20584;-69
2022/07/26 09:51:09;;;;;;;3.20;0.90;;;;;;;24.36;47.41;98126.56;5053926;28;20621;-68
2022/07/26 09:53:40;;;;;;;3.60;1.20;;;;;;;24.37;46.17;98119.28;5053810;28;20220;-69
2022/07/26 09:56:08;;;;;;;2.23;0.90;;;;;;;24.37;46.99;98130.94;5053702;28;20634;-71
2022/07/26 09:58:36;;;;;;;0.83;0.77;;;;;;;24.51;46.43;98132.75;5053944;28;20258;-69
2022/07/26 10:01:02;;;;;;;3.63;0.83;;;;;;;24.48;46.47;98133.13;5053843;28;20222;-69
2022/07/26 10:03:30;;;;;;;2.27;0.97;;;;;;;24.45;46.95;98138.09;5053640;28;20753;-69
2022/07/26 10:05:57;;;;;;;2.63;0.90;;;;;;;24.44;46.46;98142.66;5052002;28;20681;-69
2022/07/26 10:08:25;;;;;;;1.60;0.90;;;;;;;24.49;47.57;98140.22;5053603;28;20216;-69
2022/07/26 10:10:55;;;;;;;0.83;0.70;;;;;;;24.73;46.15;98150.66;5053674;28;20208;-69
2022/07/26 10:13:22;;;;;;;1.20;0.80;;;;;;;24.91;46.58;98145.63;5053599;28;20230;-69
2022/07/26 10:15:51;;;;;;;2.40;0.90;;;;;;;24.85;45.75;98145.56;5053197;28;20243;-67
2022/07/26 10:18:43;;;;;;;2.17;1.03;;;;;;;24.66;46.11;98147.06;5053767;28;20228;-69
2022/07/26 10:21:21;;;;;;;2.27;0.93;;;;;;;24.52;47.25;98147.94;5042104;28;20252;-69
2022/07/26 10:23:50;;;;;;;2.60;1.20;;;;;;;24.64;47.52;98143.69;5053423;28;20406;-69
2022/07/26 10:26:37;;;;;;;1.60;1.10;;;;;;;24.83;46.89;98145.78;5053432;28;20598;-68
2022/07/26 10:29:20;;;;;;;2.50;1.07;;;;;;;24.82;47.69;98152.19;5042450;28;20218;-68
2022/07/26 10:31:48;;;;;;;1.47;0.97;;;;;;;25.04;46.94;98151.13;5050905;28;20216;-69
2022/07/26 10:34:30;;;;;;;2.20;1.00;;;;;;;24.97;45.70;98144.84;5053085;28;20228;-70
2022/07/26 10:36:58;;;;;;;2.20;1.00;;;;;;;24.93;46.12;98143.56;5053165;28;20239;-69
2022/07/26 10:39:26;;;;;;;1.93;1.07;;;;;;;25.02;46.15;98145.09;5053181;28;20636;-69
2022/07/26 10:41:59;;;;;;;1.97;1.00;;;;;;;25.00;45.57;98139.03;5053177;28;20216;-69
2022/07/26 10:44:27;;;;;;;0.97;0.73;;;;;;;25.02;45.63;98146.97;5052353;28;20561;-69
2022/07/26 10:47:11;;;;;;;3.00;1.00;;;;;;;25.06;45.48;98151.78;5052632;28;20214;-68
2022/07/26 10:49:40;;;;;;;1.73;0.90;;;;;;;24.92;45.07;98158.13;5052595;28;20211;-72
2022/07/26 10:52:10;;;;;;;2.17;0.80;;;;;;;24.86;44.44;98142.66;5051800;28;20681;-71
2022/07/26 10:55:05;;;;;;;1.20;0.80;;;;;;;24.83;44.92;98153.88;5052407;28;20228;-71
2022/07/26 10:57:33;;;;;;;1.40;0.80;;;;;;;24.98;44.63;98151.94;5052044;28;20248;-70
2022/07/26 11:00:00;;;;;;;1.27;0.80;;;;;;;24.87;45.12;98159.75;5051512;28;20223;-70
2022/07/26 11:02:31;;;;;;;1.70;0.90;;;;;;;24.84;45.60;98160.97;5052134;28;20212;-70
2022/07/26 11:04:59;;;;;;;2.73;0.90;;;;;;;25.07;44.02;98156.19;5052886;28;20610;-70
2022/07/26 11:07:26;;;;;;;1.77;0.90;;;;;;;25.29;44.04;98155.09;5052722;28;20274;-70
2022/07/26 11:09:55;;;;;;;1.13;0.80;;;;;;;25.63;43.63;98152.44;5052161;28;20224;-70
2022/07/26 11:12:23;;;;;;;3.13;0.87;;;;;;;25.93;43.15;98153.00;5052573;28;20220;-70
2022/07/26 11:14:50;;;;;;;2.17;0.90;;;;;;;25.96;42.69;98158.88;5052560;28;20581;-70
2022/07/26 11:17:24;;;;;;;1.87;1.00;;;;;;;25.78;42.26;98155.81;5052541;28;20232;-69
2022/07/26 11:19:51;;;;;;;1.00;0.80;;;;;;;25.59;41.75;98153.84;5051582;28;20216;-68
2022/07/26 11:22:18;;;;;;;0.80;0.80;;;;;;;25.51;42.15;98154.03;5052585;28;20239;-69
2022/07/26 11:24:45;;;;;;;2.57;0.93;;;;;;;25.68;42.76;98149.97;5050639;28;20556;-69
2022/07/26 11:27:11;;;;;;;2.57;1.00;;;;;;;25.68;42.14;98152.66;5052074;28;20223;-68
2022/07/26 11:29:39;;;;;;;1.47;0.80;;;;;;;25.55;42.43;98149.84;5052121;28;20222;-69
2022/07/26 11:32:14;;;;;;;0.85;0.85;;;;;;;25.53;42.51;98151.13;5052299;28;20540;-69